Aeroporto :
LOGIN :

Iscrizione | Disclaimer

   EN    FR    IT 

 










Sommario :    VFR   VFR Marginale   IFR   IFR Intensivo   IFR Molto Intensivo
Visibilità : 
Base nubi : 
>= 8 km
>= 3000ft
5 / 8 km
1000 / 3000 ft
1500m / 5 km
500 / 1000 ft
800 / 1500m
200 / 500 ft
< 800m
< 200 ft
Simboli :   Temporali  Nebbia  Neve Forte  Precipitazioni Forti  Vento > 20 kt
SIGMETs :   Varie  Temporali  Ghiacco  Turbolenza  Onda orograficha  Ceneri Vulcaniche






- Altitudine del aeroporto : 154 ft
- Codice IATA : SZZ


EPSC - Szczecin Goleniow

ULTIMO METAR :
  • 161300Z 18007KT 140V200 9999 FEW008 22/19 Q1010

METARs OBSOLETI :
  • 161230Z 17008KT 150V220 9999 FEW007 BKN009 21/20 Q1011
  • 161200Z 16008KT 9999 -SHRA FEW007 SCT050CB 21/20 Q1010
  • 161130Z 14006KT 9999 -SHRA FEW008 SCT055CB 21/20 Q1010
  • 161100Z 15007KT 9999 -SHRA FEW024 SCT050CB 21/20 Q1010
  • 161030Z 15007KT 9999 -SHRA FEW060CB 20/20 Q1010
  • 161000Z 16003KT 100V190 9999 FEW050CB 20/19 Q1009
  • 160930Z 20004KT 170V230 9999 FEW050CB 20/19 Q1010
  • 160900Z 14004KT 110V170 9999 -SHRA SCT033CB 20/19 Q1009
  • 160830Z 14006KT 8000 -SHRA BKN046CB 19/18 Q1010 RETSRA
  • 160800Z 14009KT 110V180 2000 TSRA BKN042CB 19/18 Q1010

TAF TAF EPSC
Valido dal 16 a 12 ore il 17 a 12 ore UTC


161130Z 1612/1712 16010KT CAVOK
BECMG 1612/1614 23005KT
TEMPO 1612/1624 4000 TSRA BKN050CB
PROB40
TEMPO 1612/1620 VRB20G30KT 2000 TSRA BKN040CB



MetMap, La meteo Aeronautica in un colpo d'occhio ! - Copyright ORBIFLY Dicembre 2007 - Disclaimer

ORBIFLY MET'MAP TEAM :

Programmazione e sviluppo : Alexandra Zaïnal
Concezione : Baudouin d'Aumeries
Supporto tecnico e logistico : Manuel Goepfert
Aiuto : Marc-Olivier Méhu
Aiuto per la traduzione : Arnaldo La Scala




FONTI E CREDITI :

   NOAA